Time;durP1;ratioP1;P1;durP2;ratioP2;P2;SDS_P1;SDS_P2;PMS_P1;PMS_P2;Temp;Humidity;BMP_temperature;BMP_pressure;BME280_temperature;BME280_humidity;BME280_pressure;Samples;Min_cycle;Max_cycle;Signal;HPM_P1;HPM_P2
2022/01/19 00:01:15;;;;;;;36.65;17.08;;;;;;;0.94;96.58;102936.19;5027536;28;20033;-69
2022/01/19 00:03:41;;;;;;;43.53;18.45;;;;;;;0.93;96.58;102928.56;5042730;28;20272;-69
2022/01/19 00:06:07;;;;;;;38.78;16.38;;;;;;;1.04;97.06;102918.91;5047909;28;20036;-69
2022/01/19 00:08:33;;;;;;;41.30;18.10;;;;;;;1.05;96.52;102912.88;5045906;28;20510;-68
2022/01/19 00:10:58;;;;;;;36.80;15.50;;;;;;;1.05;96.76;102918.00;5033339;28;20318;-68
2022/01/19 00:13:25;;;;;;;28.30;14.02;;;;;;;1.15;97.01;102933.94;5026796;28;20038;-68
2022/01/19 00:15:52;;;;;;;29.25;13.55;;;;;;;1.21;97.40;102928.66;5045558;28;20051;-66
2022/01/19 00:18:22;;;;;;;31.10;13.10;;;;;;;1.34;97.44;102929.97;5050646;28;20035;-67
2022/01/19 00:20:48;;;;;;;27.38;12.23;;;;;;;1.49;97.61;102925.31;5030026;28;20037;-67
2022/01/19 00:23:18;;;;;;;20.13;10.65;;;;;;;1.58;97.27;102924.19;5045642;28;20033;-66
2022/01/19 00:25:48;;;;;;;27.45;12.00;;;;;;;1.63;97.15;102912.09;5042915;28;20033;-66
2022/01/19 00:28:15;;;;;;;22.80;11.10;;;;;;;1.55;96.72;102912.34;5046142;28;20025;-67
2022/01/19 00:30:41;;;;;;;20.30;11.05;;;;;;;1.51;97.11;102897.97;5044477;28;20072;-67
2022/01/19 00:33:08;;;;;;;22.58;11.02;;;;;;;1.52;97.51;102880.00;5026634;28;20080;-67
2022/01/19 00:35:35;;;;;;;20.50;10.73;;;;;;;1.59;97.66;102870.44;5023341;28;20037;-67
2022/01/19 00:38:02;;;;;;;29.65;10.18;;;;;;;1.70;97.15;102863.28;5024928;28;20064;-67
2022/01/19 00:40:29;;;;;;;25.00;10.65;;;;;;;1.66;96.88;102869.38;5041781;28;20107;-67
2022/01/19 00:42:57;;;;;;;25.52;10.48;;;;;;;1.63;97.38;102877.13;5026414;28;20033;-67
2022/01/19 00:45:23;;;;;;;17.67;9.95;;;;;;;1.54;97.37;102888.50;5023776;28;20033;-67
2022/01/19 00:47:49;;;;;;;22.15;11.00;;;;;;;1.53;97.30;102902.16;5031899;28;20032;-66
2022/01/19 00:50:20;;;;;;;18.75;9.98;;;;;;;1.43;97.37;102905.88;5028604;28;20033;-67
2022/01/19 00:52:46;;;;;;;19.20;9.63;;;;;;;1.34;98.17;102896.75;5026000;28;20124;-66
2022/01/19 00:55:14;;;;;;;24.23;10.60;;;;;;;1.34;97.98;102906.13;5025323;28;20078;-67
2022/01/19 00:57:40;;;;;;;19.92;10.50;;;;;;;1.25;98.25;102902.13;5041938;28;20037;-67
2022/01/19 01:00:10;;;;;;;24.13;9.45;;;;;;;1.19;98.03;102899.75;5029938;28;20037;-67
2022/01/19 01:02:40;;;;;;;20.80;9.73;;;;;;;1.14;97.79;102901.59;5024965;28;20599;-67
2022/01/19 01:05:06;;;;;;;20.98;10.18;;;;;;;1.10;98.32;102902.56;5032297;28;20036;-67
2022/01/19 01:07:33;;;;;;;18.08;9.90;;;;;;;1.08;98.38;102907.72;5033350;28;20060;-67
2022/01/19 01:10:02;;;;;;;20.25;9.57;;;;;;;1.06;98.25;102903.53;5028667;28;20029;-67
2022/01/19 01:12:42;;;;;;;19.13;9.15;;;;;;;1.03;98.41;102898.50;5043505;28;20041;-67
2022/01/19 01:15:29;;;;;;;19.58;9.93;;;;;;;1.01;98.72;102895.97;5026043;28;20549;-67
2022/01/19 01:20:33;;;;;;;16.35;9.00;;;;;;;0.97;98.73;102890.09;5023118;28;20056;-67
2022/01/19 01:23:00;;;;;;;20.55;9.30;;;;;;;0.99;98.60;102892.63;5040500;28;20124;-67
2022/01/19 01:25:26;;;;;;;19.67;8.90;;;;;;;0.98;98.94;102888.41;5044899;28;20116;-67
2022/01/19 01:27:52;;;;;;;18.20;8.88;;;;;;;0.96;98.62;102882.47;5021227;28;20033;-67
2022/01/19 01:30:19;;;;;;;18.77;9.60;;;;;;;0.92;99.00;102876.66;5011887;28;20123;-67
2022/01/19 01:32:45;;;;;;;21.45;11.30;;;;;;;0.91;98.92;102867.28;5025921;28;20039;-67
2022/01/19 01:35:11;;;;;;;18.77;9.50;;;;;;;0.90;99.19;102859.66;5018072;28;20037;-67
2022/01/19 01:37:37;;;;;;;18.42;8.80;;;;;;;0.87;99.21;102855.50;5027654;28;20068;-67
2022/01/19 01:40:05;;;;;;;17.38;10.05;;;;;;;0.85;99.27;102846.19;5043206;28;20466;-67
2022/01/19 01:42:32;;;;;;;18.25;9.43;;;;;;;0.82;99.09;102836.06;5022131;28;20039;-67
2022/01/19 01:45:01;;;;;;;19.00;10.00;;;;;;;0.88;99.04;102839.28;5043008;28;20146;-67
2022/01/19 01:47:29;;;;;;;19.35;9.77;;;;;;;0.99;99.28;102838.16;5036572;28;20102;-67
2022/01/19 01:55:21;;;;;;;18.83;10.55;;;;;;;1.14;98.84;102833.41;5022234;28;20041;-67
2022/01/19 01:57:48;;;;;;;19.25;9.88;;;;;;;1.13;99.13;102828.34;5042072;28;20564;-67
2022/01/19 02:00:18;;;;;;;19.67;10.45;;;;;;;1.07;99.16;102846.41;5021669;28;20029;-67
2022/01/19 02:02:46;;;;;;;18.13;10.60;;;;;;;1.01;99.28;102833.81;5041139;28;20030;-67
2022/01/19 02:05:17;;;;;;;23.75;9.18;;;;;;;0.94;99.24;102823.78;5027410;28;20218;-67
2022/01/19 02:08:17;;;;;;;20.88;9.65;;;;;;;0.87;99.52;102819.72;5008526;28;20067;-67
2022/01/19 02:11:00;;;;;;;20.98;10.18;;;;;;;0.96;99.12;102795.63;5023998;28;20043;-67
2022/01/19 02:21:58;;;;;;;18.20;11.68;;;;;;;1.08;98.77;102761.22;5040939;28;20467;-67
2022/01/19 02:24:30;;;;;;;21.30;11.50;;;;;;;0.98;98.88;102760.66;5007733;28;20087;-67
2022/01/19 02:40:36;;;;;;;19.20;10.82;;;;;;;0.84;99.29;102742.34;5037220;28;20032;-67
2022/01/19 02:51:03;;;;;;;25.05;11.48;;;;;;;0.96;98.72;102698.53;5041583;28;20056;-67
2022/01/19 02:53:28;;;;;;;24.02;12.05;;;;;;;0.97;98.99;102697.66;5039991;28;20166;-67
2022/01/19 02:55:54;;;;;;;20.48;11.70;;;;;;;0.96;99.10;102691.72;5022374;28;20534;-67
2022/01/19 02:58:22;;;;;;;24.65;12.32;;;;;;;0.97;99.44;102693.38;5021465;28;20030;-67
2022/01/19 03:09:03;;;;;;;21.58;11.82;;;;;;;0.70;99.60;102679.75;5040562;28;20067;-67
2022/01/19 03:11:29;;;;;;;23.92;12.13;;;;;;;0.70;99.17;102677.19;5040793;28;20036;-67
2022/01/19 03:13:55;;;;;;;22.13;11.35;;;;;;;0.70;99.75;102672.09;5042089;28;20047;-67
2022/01/19 03:16:22;;;;;;;20.95;10.60;;;;;;;0.65;99.54;102678.22;5041066;28;20456;-67
2022/01/19 03:18:49;;;;;;;22.98;11.82;;;;;;;0.63;99.88;102675.69;5035770;28;20044;-66
2022/01/19 03:21:16;;;;;;;24.92;13.07;;;;;;;0.71;99.92;102653.31;5028121;28;20024;-67
2022/01/19 03:23:44;;;;;;;23.45;12.52;;;;;;;0.72;99.37;102656.72;5027549;28;20041;-67
2022/01/19 03:26:13;;;;;;;22.55;12.48;;;;;;;0.68;99.94;102652.56;5024502;28;20048;-67
2022/01/19 03:29:04;;;;;;;19.10;11.50;;;;;;;0.62;99.80;102655.31;5041803;28;20402;-67
2022/01/19 03:31:30;;;;;;;23.15;13.18;;;;;;;0.66;100.00;102649.22;5027493;28;20025;-67
2022/01/19 03:33:55;;;;;;;24.63;13.95;;;;;;;0.64;100.00;102646.75;5028919;28;20040;-67
2022/01/19 03:36:22;;;;;;;29.35;14.13;;;;;;;0.66;100.00;102655.19;5029517;28;20147;-66
2022/01/19 03:38:49;;;;;;;28.45;14.60;;;;;;;0.71;100.00;102652.47;5025247;28;20411;-67
2022/01/19 03:41:15;;;;;;;29.88;16.23;;;;;;;0.81;100.00;102642.81;5026807;28;20025;-67
2022/01/19 03:43:50;;;;;;;35.83;17.65;;;;;;;0.89;100.00;102641.69;5020663;28;20034;-67
2022/01/19 03:46:29;;;;;;;46.22;17.75;;;;;;;1.04;99.70;102640.38;5026057;28;20041;-67
2022/01/19 03:48:57;;;;;;;42.33;17.63;;;;;;;1.08;99.56;102647.06;5006600;28;20025;-67
2022/01/19 03:51:23;;;;;;;38.47;18.52;;;;;;;1.01;99.58;102648.13;5024853;28;20033;-68
2022/01/19 03:53:54;;;;;;;38.65;18.40;;;;;;;0.96;100.00;102658.50;5028130;28;20029;-67
2022/01/19 03:56:22;;;;;;;48.47;21.23;;;;;;;1.13;99.95;102650.31;5018837;28;20445;-67
2022/01/19 03:58:48;;;;;;;41.95;19.27;;;;;;;1.10;100.00;102652.13;5011674;28;20083;-67
2022/01/19 04:01:14;;;;;;;42.20;18.70;;;;;;;1.10;99.61;102647.00;5027227;28;20032;-67
2022/01/19 04:06:40;;;;;;;55.50;22.35;;;;;;;1.13;99.78;102646.91;5023520;28;20117;-67
2022/01/19 04:09:05;;;;;;;49.58;20.58;;;;;;;1.15;99.64;102648.53;5044477;28;20067;-68
2022/01/19 04:11:31;;;;;;;48.17;20.10;;;;;;;1.24;99.36;102644.00;5030467;28;20033;-67
2022/01/19 04:14:21;;;;;;;53.50;22.00;;;;;;;1.25;99.50;102640.56;5029912;28;20016;-68
2022/01/19 04:16:45;;;;;;;47.83;20.70;;;;;;;1.19;99.76;102641.59;5042989;28;20437;-67
2022/01/19 04:19:28;;;;;;;44.72;19.77;;;;;;;1.28;99.53;102627.66;5024665;28;20526;-67
2022/01/19 04:22:01;;;;;;;44.80;18.52;;;;;;;1.32;99.34;102639.50;5027421;28;20040;-67
2022/01/19 04:24:27;;;;;;;43.50;17.70;;;;;;;1.52;98.46;102621.72;5043854;28;20521;-66
2022/01/19 04:27:37;;;;;;;42.08;17.92;;;;;;;1.55;98.39;102631.03;5045161;28;20024;-67
2022/01/19 04:32:34;;;;;;;45.45;17.23;;;;;;;1.68;97.26;102624.59;5022520;28;20033;-67
2022/01/19 04:35:05;;;;;;;39.15;17.23;;;;;;;1.68;97.13;102632.28;5041550;28;20053;-67
2022/01/19 04:54:33;;;;;;;40.33;17.67;;;;;;;1.75;97.50;102608.16;5025619;28;20498;-67
2022/01/19 05:06:25;;;;;;;34.67;16.20;;;;;;;1.95;95.82;102578.44;5041478;28;20037;-68
2022/01/19 05:08:46;;;;;;;29.50;15.93;;;;;;;1.90;95.54;102577.78;5017270;28;20481;-67
2022/01/19 05:13:56;;;;;;;34.42;17.25;;;;;;;1.79;96.19;102570.50;5021511;28;20037;-67
2022/01/19 05:16:27;;;;;;;34.42;17.77;;;;;;;1.81;95.58;102570.44;5024235;28;20120;-67
2022/01/19 05:18:54;;;;;;;38.20;16.60;;;;;;;1.91;95.98;102571.78;5026707;28;20306;-67
2022/01/19 05:21:21;;;;;;;37.50;17.35;;;;;;;1.91;95.32;102566.66;5025186;28;20812;-67
2022/01/19 05:23:55;;;;;;;35.70;17.52;;;;;;;2.00;95.17;102563.78;5037082;28;20048;-67
2022/01/19 05:26:22;;;;;;;34.10;16.70;;;;;;;2.00;94.51;102556.09;5030407;28;20464;-67
2022/01/19 05:28:51;;;;;;;35.22;17.63;;;;;;;2.01;95.07;102555.19;5014552;28;20033;-67
2022/01/19 05:31:16;;;;;;;35.65;18.30;;;;;;;1.90;95.18;102560.72;5035035;28;20029;-67
2022/01/19 05:33:42;;;;;;;33.80;18.35;;;;;;;2.05;94.83;102546.50;5042165;28;20033;-67
2022/01/19 05:36:08;;;;;;;38.05;19.23;;;;;;;2.06;94.45;102550.75;5033972;28;20036;-67
2022/01/19 05:39:06;;;;;;;35.08;17.92;;;;;;;2.09;94.19;102542.09;5028499;28;20799;-67
2022/01/19 05:41:52;;;;;;;38.85;17.83;;;;;;;2.00;94.88;102533.06;5042679;28;20044;-67
2022/01/19 05:44:21;;;;;;;35.17;18.17;;;;;;;2.01;94.96;102524.47;5047663;28;20542;-67
2022/01/19 05:46:47;;;;;;;33.15;17.83;;;;;;;2.00;95.30;102524.53;5024904;28;20836;-67
2022/01/19 05:49:13;;;;;;;34.67;18.77;;;;;;;1.92;95.51;102520.56;5037092;28;20512;-67
2022/01/19 05:51:39;;;;;;;34.70;18.75;;;;;;;2.03;95.27;102521.88;5021006;28;20032;-67
2022/01/19 05:54:04;;;;;;;38.70;18.42;;;;;;;1.99;95.81;102515.19;5015951;28;20106;-67
2022/01/19 05:56:31;;;;;;;36.63;17.90;;;;;;;2.05;95.68;102518.34;5026211;28;20033;-67
2022/01/19 05:59:10;;;;;;;35.65;17.35;;;;;;;2.05;95.17;102509.84;5025220;28;20053;-67
2022/01/19 06:01:37;;;;;;;33.30;16.73;;;;;;;2.03;95.09;102504.78;5024625;28;20124;-67
2022/01/19 06:04:02;;;;;;;33.67;18.02;;;;;;;1.96;95.41;102511.03;5027196;28;21616;-67
2022/01/19 06:07:03;;;;;;;33.80;17.88;;;;;;;1.99;95.11;102500.69;4998643;28;20037;-67
2022/01/19 06:10:05;;;;;;;37.35;17.30;;;;;;;2.01;95.44;102496.31;5017880;28;20043;-67
2022/01/19 06:12:36;;;;;;;35.58;17.58;;;;;;;1.95;95.11;102496.56;5023376;28;20207;-67
2022/01/19 06:15:03;;;;;;;36.13;19.30;;;;;;;1.91;95.66;102498.41;5023291;28;20451;-67
2022/01/19 06:17:29;;;;;;;35.40;17.70;;;;;;;1.87;96.02;102493.47;5045076;28;20033;-69
2022/01/19 06:19:55;;;;;;;32.22;17.70;;;;;;;1.86;96.47;102492.63;5023066;28;20033;-69
2022/01/19 06:22:21;;;;;;;35.42;17.98;;;;;;;1.91;96.34;102505.25;5044105;28;20581;-69
2022/01/19 06:24:51;;;;;;;40.15;18.25;;;;;;;1.87;96.82;102501.16;5041980;28;20028;-69
2022/01/19 06:27:18;;;;;;;37.42;17.98;;;;;;;1.89;96.75;102505.31;5030626;28;21011;-69
2022/01/19 06:29:44;;;;;;;38.20;18.30;;;;;;;1.99;96.66;102505.78;5044945;28;20056;-69
2022/01/19 06:32:10;;;;;;;34.80;18.17;;;;;;;2.14;95.51;102496.69;5029357;28;20039;-69
2022/01/19 06:34:40;;;;;;;33.75;18.50;;;;;;;2.13;94.97;102501.00;5028711;28;20043;-69
2022/01/19 06:37:21;;;;;;;36.83;18.02;;;;;;;2.11;95.05;102500.22;5041927;28;20047;-69
2022/01/19 06:40:08;;;;;;;35.58;18.00;;;;;;;2.04;95.40;102498.78;5040004;28;20068;-69
2022/01/19 06:42:35;;;;;;;42.33;18.27;;;;;;;2.04;95.81;102501.34;5042791;28;20056;-69
2022/01/19 06:45:02;;;;;;;37.60;17.58;;;;;;;2.03;95.64;102497.09;5011865;28;20057;-69
2022/01/19 06:47:28;;;;;;;36.38;19.05;;;;;;;2.03;96.08;102498.84;5037383;28;20025;-69
2022/01/19 06:49:57;;;;;;;38.22;18.60;;;;;;;2.06;96.12;102499.56;5008772;28;20029;-69
2022/01/19 06:52:31;;;;;;;34.10;18.83;;;;;;;2.04;96.12;102490.28;5042151;28;20037;-69
2022/01/19 06:54:57;;;;;;;44.40;19.90;;;;;;;2.07;96.39;102496.13;5024656;28;20033;-69
2022/01/19 06:57:23;;;;;;;34.40;19.00;;;;;;;2.11;95.92;102497.66;5025787;28;20114;-69
2022/01/19 07:00:11;;;;;;;33.63;17.92;;;;;;;2.10;95.96;102490.84;5028896;28;20418;-69
2022/01/19 07:03:00;;;;;;;31.38;17.65;;;;;;;2.05;95.83;102486.81;5041813;28;20033;-69
2022/01/19 07:05:37;;;;;;;31.90;18.10;;;;;;;2.06;96.15;102488.50;5011266;28;20041;-70
2022/01/19 07:08:25;;;;;;;32.33;17.27;;;;;;;2.03;96.16;102483.47;5044017;28;20544;-69
2022/01/19 07:10:51;;;;;;;36.88;19.17;;;;;;;2.13;95.65;102483.06;5022539;28;20071;-69
2022/01/19 07:13:18;;;;;;;40.10;18.75;;;;;;;2.17;95.23;102480.38;5043763;28;20445;-69
2022/01/19 07:15:44;;;;;;;40.30;19.38;;;;;;;2.13;94.86;102477.13;5028644;28;20422;-69
2022/01/19 07:18:10;;;;;;;35.55;18.90;;;;;;;2.07;94.95;102464.53;5041002;28;20031;-69
2022/01/19 07:20:37;;;;;;;34.50;18.75;;;;;;;2.07;95.29;102460.28;5024980;28;20029;-69
2022/01/19 07:23:03;;;;;;;33.70;18.05;;;;;;;2.26;94.42;102462.09;5044311;28;20025;-69
2022/01/19 07:25:30;;;;;;;32.13;17.38;;;;;;;2.16;93.99;102451.41;5024639;28;20033;-69
2022/01/19 07:27:56;;;;;;;32.47;17.90;;;;;;;2.19;93.96;102450.47;5027998;28;20103;-69
2022/01/19 07:30:24;;;;;;;37.00;17.77;;;;;;;2.18;93.96;102453.91;5024913;28;20045;-69
2022/01/19 07:32:51;;;;;;;34.00;19.30;;;;;;;2.20;93.92;102452.94;5026618;28;20155;-69
2022/01/19 07:35:19;;;;;;;31.90;17.17;;;;;;;2.19;93.76;102438.47;5028674;28;20033;-69
2022/01/19 07:37:51;;;;;;;34.45;16.88;;;;;;;2.39;93.44;102435.09;5032154;28;20044;-69
2022/01/19 07:40:17;;;;;;;30.70;17.27;;;;;;;2.32;92.95;102434.53;5023655;28;20034;-69
2022/01/19 07:42:44;;;;;;;34.15;16.45;;;;;;;2.28;93.21;102429.56;5043884;28;20029;-69
2022/01/19 07:45:43;;;;;;;32.70;17.58;;;;;;;2.30;93.42;102428.66;4998394;28;20049;-69
2022/01/19 07:48:27;;;;;;;30.23;17.13;;;;;;;2.28;93.09;102417.63;5042758;28;20865;-69
2022/01/19 07:51:10;;;;;;;33.65;17.17;;;;;;;2.31;93.24;102419.22;5024014;28;20072;-69
2022/01/19 07:54:02;;;;;;;30.23;17.30;;;;;;;2.39;92.37;102417.19;4968911;28;20047;-69
2022/01/19 07:56:54;;;;;;;36.63;18.35;;;;;;;2.37;92.42;102415.59;5033431;28;20041;-69
2022/01/19 07:59:38;;;;;;;37.97;19.13;;;;;;;2.34;92.21;102421.66;5030805;28;20102;-69
2022/01/19 08:02:07;;;;;;;36.65;19.10;;;;;;;2.27;92.58;102422.81;5030750;28;20029;-69
2022/01/19 08:05:11;;;;;;;34.25;17.90;;;;;;;2.43;92.72;102408.50;5043196;28;20514;-69
2022/01/19 08:07:37;;;;;;;30.88;16.77;;;;;;;2.35;92.69;102418.19;5010182;28;20082;-69
2022/01/19 08:10:10;;;;;;;32.85;18.67;;;;;;;2.34;92.76;102406.31;5020395;28;20031;-69
2022/01/19 08:12:36;;;;;;;37.42;18.60;;;;;;;2.28;93.50;102406.53;5025014;28;20754;-69
2022/01/19 08:15:04;;;;;;;30.60;18.73;;;;;;;2.36;93.22;102413.94;5044177;28;20150;-68
2022/01/19 08:17:34;;;;;;;34.22;18.63;;;;;;;2.29;93.41;102414.16;5035643;28;20032;-69
2022/01/19 08:19:59;;;;;;;31.25;17.73;;;;;;;2.34;93.44;102409.69;5046743;28;20164;-69
2022/01/19 08:22:26;;;;;;;31.80;17.98;;;;;;;2.30;93.60;102403.03;5046069;28;20060;-68
2022/01/19 08:25:13;;;;;;;35.55;19.10;;;;;;;2.32;93.58;102398.69;5042337;28;20375;-68
2022/01/19 08:27:39;;;;;;;33.90;18.75;;;;;;;2.30;93.36;102408.16;5027064;28;20041;-68
2022/01/19 08:30:08;;;;;;;34.70;18.95;;;;;;;2.35;93.15;102405.41;5016730;28;20040;-68
2022/01/19 08:32:35;;;;;;;32.38;17.92;;;;;;;2.37;92.74;102413.03;5044562;28;20029;-67
2022/01/19 08:35:15;;;;;;;33.67;18.52;;;;;;;2.37;92.94;102424.09;5020369;28;20031;-68
2022/01/19 08:37:59;;;;;;;33.38;18.52;;;;;;;2.39;93.33;102406.94;5047766;28;20518;-68
2022/01/19 08:40:29;;;;;;;34.10;18.33;;;;;;;2.36;93.71;102408.81;5029594;28;20502;-68
2022/01/19 08:43:12;;;;;;;33.28;18.65;;;;;;;2.51;93.46;102410.72;5022853;28;20029;-68
2022/01/19 08:45:38;;;;;;;33.45;18.67;;;;;;;2.43;93.28;102411.06;5024673;28;20033;-68
2022/01/19 08:48:04;;;;;;;34.72;19.23;;;;;;;2.50;93.33;102409.88;5030318;28;20044;-68
2022/01/19 08:50:52;;;;;;;33.08;18.67;;;;;;;2.45;93.34;102409.25;5030327;28;20147;-68
2022/01/19 08:53:50;;;;;;;36.45;19.08;;;;;;;2.45;93.29;102406.69;5020129;28;20136;-68
2022/01/19 08:56:36;;;;;;;30.65;18.30;;;;;;;2.50;92.80;102404.75;5045508;28;20048;-68
2022/01/19 08:59:02;;;;;;;39.88;19.50;;;;;;;2.52;93.05;102395.31;5027185;28;20110;-68
2022/01/19 09:01:28;;;;;;;33.53;19.90;;;;;;;2.56;92.72;102387.47;5025715;28;20056;-68
2022/01/19 09:03:53;;;;;;;34.35;18.90;;;;;;;2.59;92.69;102387.34;5046704;28;20557;-68
2022/01/19 09:06:19;;;;;;;32.30;18.80;;;;;;;2.63;92.04;102379.47;5040948;28;20042;-68
2022/01/19 09:08:45;;;;;;;37.92;21.05;;;;;;;2.55;91.92;102371.28;5025261;28;20045;-68
2022/01/19 09:11:12;;;;;;;36.85;19.63;;;;;;;2.50;92.78;102368.91;5034196;28;20124;-68
2022/01/19 09:13:38;;;;;;;39.03;20.02;;;;;;;2.49;93.15;102367.25;5040013;28;20104;-68
2022/01/19 09:16:05;;;;;;;35.38;19.65;;;;;;;2.50;93.44;102363.78;5022667;28;20033;-68
2022/01/19 09:18:31;;;;;;;35.10;18.73;;;;;;;2.51;93.32;102355.22;5026275;28;20041;-68
2022/01/19 09:20:57;;;;;;;34.75;19.27;;;;;;;2.53;93.36;102357.72;5025360;28;20036;-68
2022/01/19 09:23:22;;;;;;;37.03;20.80;;;;;;;2.63;93.05;102358.16;5043603;28;20060;-68
2022/01/19 09:25:48;;;;;;;34.28;18.75;;;;;;;2.57;92.92;102360.97;5022594;28;22050;-68
2022/01/19 09:28:14;;;;;;;38.92;18.60;;;;;;;2.55;93.17;102357.66;5025861;28;20045;-68
2022/01/19 09:30:41;;;;;;;34.05;18.80;;;;;;;2.59;93.13;102352.31;5028179;28;20068;-68
2022/01/19 09:33:19;;;;;;;35.30;19.38;;;;;;;2.59;92.59;102343.81;5038676;28;20435;-68
2022/01/19 09:38:19;;;;;;;34.85;19.63;;;;;;;2.71;92.27;102340.72;5042835;28;20052;-68
2022/01/19 09:40:46;;;;;;;46.72;21.00;;;;;;;2.71;92.17;102331.31;5042976;28;20025;-68
2022/01/19 09:43:12;;;;;;;34.35;19.40;;;;;;;2.68;92.06;102346.81;5039709;28;20036;-68
2022/01/19 09:45:38;;;;;;;33.85;18.80;;;;;;;2.76;92.01;102335.41;5043509;28;20982;-68
2022/01/19 09:48:07;;;;;;;37.65;20.42;;;;;;;2.81;91.33;102328.34;5034792;28;20338;-68
2022/01/19 09:50:34;;;;;;;38.85;20.10;;;;;;;2.78;91.47;102329.28;5023086;28;20349;-68
2022/01/19 09:53:04;;;;;;;39.22;20.95;;;;;;;2.69;91.34;102320.31;5039674;28;20028;-68
2022/01/19 09:55:30;;;;;;;33.95;19.98;;;;;;;2.88;91.35;102315.19;5015707;28;20139;-68
2022/01/19 09:57:55;;;;;;;35.35;20.35;;;;;;;2.77;91.39;102319.97;5041233;28;20033;-68
2022/01/19 10:00:21;;;;;;;40.55;19.73;;;;;;;2.80;90.97;102316.41;5022445;28;20044;-68
2022/01/19 10:03:24;;;;;;;35.28;18.92;;;;;;;2.80;91.43;102308.72;5018947;28;20044;-68
2022/01/19 10:06:10;;;;;;;34.87;20.00;;;;;;;2.78;91.87;102301.13;4965955;28;20401;-68
2022/01/19 10:08:45;;;;;;;38.92;20.55;;;;;;;2.82;91.82;102289.81;5020933;28;20171;-68
2022/01/19 10:17:06;;;;;;;35.38;19.83;;;;;;;2.92;91.53;102278.28;5035579;28;20036;-68
2022/01/19 10:19:39;;;;;;;36.47;19.60;;;;;;;2.98;91.03;102272.03;5033971;28;20478;-68
2022/01/19 10:22:13;;;;;;;38.88;21.65;;;;;;;3.03;90.98;102269.25;5036373;28;20035;-68
2022/01/19 10:24:50;;;;;;;35.15;19.70;;;;;;;3.06;90.94;102271.69;5037349;28;20029;-68
2022/01/19 10:27:31;;;;;;;35.92;19.77;;;;;;;3.05;91.12;102270.00;5038540;28;20063;-68
2022/01/19 10:30:13;;;;;;;36.47;17.70;;;;;;;3.26;90.01;102263.88;5035130;28;20037;-68
2022/01/19 10:32:40;;;;;;;33.67;18.67;;;;;;;3.27;89.88;102262.16;5035149;28;20108;-68
2022/01/19 10:35:25;;;;;;;32.58;18.48;;;;;;;3.28;89.50;102261.25;5015962;28;20037;-68
2022/01/19 10:38:13;;;;;;;36.45;19.77;;;;;;;3.18;89.73;102263.41;5024552;28;20029;-68
2022/01/19 10:40:42;;;;;;;36.50;18.80;;;;;;;3.19;90.24;102252.25;5041060;28;20529;-68
2022/01/19 10:43:28;;;;;;;34.60;19.13;;;;;;;3.24;90.62;102242.63;5017071;28;20029;-68
2022/01/19 10:45:55;;;;;;;37.50;19.50;;;;;;;3.19;90.79;102241.19;5038193;28;20119;-68
2022/01/19 10:48:32;;;;;;;36.97;20.10;;;;;;;3.24;90.55;102242.63;5020816;28;20076;-68
2022/01/19 10:51:07;;;;;;;33.90;17.88;;;;;;;3.39;89.26;102240.19;5041892;28;20481;-68
2022/01/19 10:53:37;;;;;;;30.77;17.20;;;;;;;3.36;88.62;102243.75;5039239;28;20029;-68
2022/01/19 10:56:05;;;;;;;35.00;18.13;;;;;;;3.32;89.40;102239.69;5041840;28;20116;-68
2022/01/19 10:58:53;;;;;;;35.92;18.30;;;;;;;3.50;88.80;102235.38;5024999;28;20049;-68
2022/01/19 11:01:44;;;;;;;32.78;17.92;;;;;;;3.46;88.34;102221.06;5026362;28;20036;-68
2022/01/19 11:04:21;;;;;;;32.28;19.35;;;;;;;3.44;88.43;102233.94;5034425;28;20044;-68
2022/01/19 11:07:11;;;;;;;36.28;17.60;;;;;;;3.35;89.01;102228.44;5044558;28;20033;-68
2022/01/19 11:09:57;;;;;;;33.42;18.55;;;;;;;3.40;88.18;102219.63;5039009;28;20102;-68
2022/01/19 11:12:26;;;;;;;38.47;18.85;;;;;;;3.36;88.32;102214.72;5026860;28;20112;-68
2022/01/19 11:14:52;;;;;;;35.22;19.73;;;;;;;3.28;89.44;102205.66;5038294;28;20025;-68
2022/01/19 11:17:18;;;;;;;42.25;20.15;;;;;;;3.43;89.23;102204.09;5027311;28;20044;-68
2022/01/19 11:19:45;;;;;;;38.50;18.95;;;;;;;3.45;88.40;102204.03;5039986;28;20048;-68
2022/01/19 11:22:21;;;;;;;35.10;19.17;;;;;;;3.39;88.59;102194.91;5041981;28;20029;-68
2022/01/19 11:25:00;;;;;;;35.60;18.70;;;;;;;3.40;88.75;102193.97;5020546;28;20047;-68
2022/01/19 11:27:29;;;;;;;34.33;18.88;;;;;;;3.54;88.51;102182.19;5024268;28;20052;-68
2022/01/19 11:30:12;;;;;;;35.00;19.77;;;;;;;3.58;87.54;102181.13;5040711;28;20050;-67
2022/01/19 11:32:42;;;;;;;34.45;19.58;;;;;;;3.45;87.72;102183.50;5037263;28;20518;-68
2022/01/19 11:35:41;;;;;;;37.00;20.38;;;;;;;3.45;88.22;102165.56;5036720;28;20044;-68
2022/01/19 11:38:31;;;;;;;35.38;19.77;;;;;;;3.42;88.61;102158.00;4996507;28;20514;-68
2022/01/19 11:41:02;;;;;;;35.78;19.38;;;;;;;3.42;88.29;102147.75;5024155;28;20059;-68
2022/01/19 11:43:30;;;;;;;34.78;19.35;;;;;;;3.43;87.73;102155.38;5042982;28;20126;-68
2022/01/19 11:46:00;;;;;;;35.35;19.38;;;;;;;3.33;88.00;102148.19;5047179;28;20470;-68
2022/01/19 11:48:29;;;;;;;36.53;20.23;;;;;;;3.36;88.45;102142.94;5037211;28;20047;-68
2022/01/19 11:51:23;;;;;;;41.13;19.63;;;;;;;3.53;87.62;102142.91;5044725;28;20128;-68
2022/01/19 11:54:03;;;;;;;34.90;19.70;;;;;;;3.48;87.69;102140.59;5046957;28;20032;-68
2022/01/19 11:56:29;;;;;;;39.97;19.75;;;;;;;3.38;87.66;102134.25;5031541;28;20043;-68
2022/01/19 11:59:08;;;;;;;38.90;20.05;;;;;;;3.40;87.89;102135.00;5047290;28;20064;-68
2022/01/19 12:01:36;;;;;;;41.25;21.27;;;;;;;3.39;87.76;102125.66;5045195;28;20043;-68
2022/01/19 12:04:14;;;;;;;39.53;20.30;;;;;;;3.40;87.06;102123.91;5045533;28;20037;-68
2022/01/19 12:06:42;;;;;;;31.88;19.08;;;;;;;3.39;87.65;102117.13;5045093;28;20021;-69
2022/01/19 12:09:09;;;;;;;39.08;19.55;;;;;;;3.39;87.65;102112.84;5041452;28;20025;-68
2022/01/19 12:11:37;;;;;;;36.08;20.23;;;;;;;3.54;87.35;102106.06;5031802;28;20094;-68
2022/01/19 12:14:14;;;;;;;41.13;20.35;;;;;;;3.49;87.53;102096.06;5050285;28;20033;-68
2022/01/19 12:16:53;;;;;;;37.08;20.10;;;;;;;3.44;88.07;102105.72;5016077;28;20071;-68
2022/01/19 12:19:27;;;;;;;40.88;21.15;;;;;;;3.49;87.96;102092.69;5042484;28;20441;-68
2022/01/19 12:22:13;;;;;;;38.13;20.50;;;;;;;3.48;87.89;102091.84;5025721;28;20028;-68
2022/01/19 12:24:43;;;;;;;37.97;18.63;;;;;;;3.47;88.14;102090.19;5018070;28;20442;-68
2022/01/19 12:27:15;;;;;;;39.58;20.35;;;;;;;3.53;87.64;102089.03;5047946;28;20321;-68
2022/01/19 12:29:44;;;;;;;36.60;20.10;;;;;;;3.47;87.78;102082.50;5046908;28;20045;-68
2022/01/19 12:32:15;;;;;;;36.55;20.58;;;;;;;3.58;87.71;102069.13;5011964;28;20040;-68
2022/01/19 12:34:51;;;;;;;37.80;20.10;;;;;;;3.63;86.88;102069.69;5049375;28;20112;-68
2022/01/19 12:37:32;;;;;;;39.33;20.70;;;;;;;3.70;87.46;102060.78;5038697;28;20119;-68
2022/01/19 12:40:03;;;;;;;40.30;20.13;;;;;;;3.72;87.06;102060.69;5033027;28;20041;-68
2022/01/19 12:42:50;;;;;;;37.78;20.15;;;;;;;3.62;87.13;102062.91;5033744;28;20438;-68
2022/01/19 12:45:27;;;;;;;37.25;19.67;;;;;;;3.75;86.82;102069.97;5040586;28;20048;-68
2022/01/19 12:47:54;;;;;;;35.80;19.85;;;;;;;3.70;87.14;102062.50;5047941;28;20483;-68
2022/01/19 12:50:20;;;;;;;37.80;20.90;;;;;;;3.61;87.08;102053.56;5047125;28;20044;-68
2022/01/19 12:52:53;;;;;;;41.88;20.35;;;;;;;3.60;87.66;102048.50;5031784;28;20036;-68
2022/01/19 12:55:22;;;;;;;36.42;20.17;;;;;;;3.53;88.04;102050.56;5045609;28;20037;-68
2022/01/19 12:57:50;;;;;;;43.70;22.70;;;;;;;3.58;87.37;102051.16;5044828;28;20090;-67
2022/01/19 13:00:18;;;;;;;39.25;20.80;;;;;;;3.61;87.04;102039.91;5046620;28;20029;-68
2022/01/19 13:02:44;;;;;;;40.20;20.60;;;;;;;3.60;87.52;102038.25;5023841;28;20695;-68
2022/01/19 13:05:17;;;;;;;40.85;19.83;;;;;;;3.66;87.66;102032.81;5044838;28;20044;-68
2022/01/19 13:07:54;;;;;;;38.33;20.60;;;;;;;3.50;87.88;102035.31;5043830;28;20041;-68